Jacksonwald, Pennsylvania
Current Conditions -  °F | °C
As of 9:54 PM on Saturday 22 Nov 2014 (Local Time) from KRDG Reporting Station
Scattered Clouds Scattered Clouds  
Wind Chill: 42°   Ceiling: Unl
Heat Index: 42°   Visibility: 10mi
Dew Point: 21°   Wind: 3mph
Humidity: 43%   Direction: 180°S
Pressure: 30.21"   Gusts: NA
Location:  40.3351°N, 75.8521°W
Report Text: KRDG 230254Z AUTO 18003KT 10SM SCT110 06/M06 A3021 RMK AO2 SLP239 T00561061 58016
Loading
Personal Weather Stations






























Interactive Weather Map New forecast layout! Learn more

10-Day Weather Forecast

Advertisements
Track Severe Weather on mobile